createdAt,value
2024-05-09T00:01:11.550Z,2.22
2024-05-09T00:06:24.056Z,2.40
2024-05-09T00:11:32.770Z,2.20
2024-05-09T00:16:44.628Z,2.47
2024-05-09T00:21:53.555Z,2.35
2024-05-09T00:27:02.959Z,1.95
2024-05-09T00:32:15.518Z,1.90
2024-05-09T00:37:24.383Z,1.90
2024-05-09T00:42:32.975Z,2.22
2024-05-09T00:47:46.957Z,2.13
2024-05-09T00:52:55.983Z,2.20
2024-05-09T00:58:05.389Z,2.22
2024-05-09T01:03:17.349Z,2.03
2024-05-09T01:08:26.452Z,2.30
2024-05-09T01:13:35.239Z,2.05
2024-05-09T01:18:47.548Z,2.25
2024-05-09T01:23:59.007Z,2.35
2024-05-09T01:29:07.763Z,3.40
2024-05-09T01:34:17.111Z,2.78
2024-05-09T01:39:28.918Z,2.95
2024-05-09T01:44:37.767Z,2.75
2024-05-09T01:49:46.681Z,2.60
2024-05-09T01:54:59.578Z,2.42
2024-05-09T02:00:15.616Z,2.53
2024-05-09T02:05:28.301Z,2.10
2024-05-09T02:10:39.999Z,2.63
2024-05-09T02:15:52.578Z,2.40
2024-05-09T02:21:01.566Z,1.85
2024-05-09T02:26:13.280Z,2.45
2024-05-09T02:31:22.324Z,2.72
2024-05-09T02:36:31.068Z,2.10
2024-05-09T02:41:42.645Z,2.80
2024-05-09T02:46:51.720Z,2.47
2024-05-09T02:52:01.888Z,2.63
2024-05-09T02:57:13.272Z,2.70
2024-05-09T03:02:22.057Z,2.05
2024-05-09T03:07:30.747Z,2.92
2024-05-09T03:12:42.130Z,2.83
2024-05-09T03:17:50.776Z,2.20
2024-05-09T03:22:59.427Z,2.72
2024-05-09T03:28:11.348Z,2.40
2024-05-09T03:33:21.089Z,2.30
2024-05-09T03:38:30.201Z,2.67
2024-05-09T03:43:41.668Z,3.00
2024-05-09T03:48:50.268Z,2.78
2024-05-09T03:53:58.969Z,2.88
2024-05-09T03:59:10.666Z,2.13
2024-05-09T04:04:19.598Z,2.83
2024-05-09T04:09:28.338Z,2.35
2024-05-09T04:14:39.917Z,1.67
2024-05-09T04:19:48.803Z,2.65
2024-05-09T04:24:58.160Z,2.17
2024-05-09T04:30:18.422Z,2.30
2024-05-09T04:35:30.773Z,2.28
2024-05-09T04:40:39.749Z,2.58
2024-05-09T04:45:51.783Z,3.58
2024-05-09T04:51:00.674Z,2.80
2024-05-09T04:56:10.948Z,2.25
2024-05-09T05:01:22.744Z,2.28
2024-05-09T05:06:31.602Z,2.45
2024-05-09T05:11:40.498Z,3.10
2024-05-09T05:22:01.773Z,2.83
2024-05-09T05:27:10.689Z,2.33
2024-05-09T05:32:22.518Z,2.92
2024-05-09T05:37:31.577Z,4.00
2024-05-09T05:42:41.468Z,3.47
2024-05-09T05:47:53.182Z,2.70
2024-05-09T05:53:02.194Z,2.38
2024-05-09T05:58:14.985Z,1.90
2024-05-09T06:03:26.664Z,2.85
2024-05-09T06:08:35.674Z,1.90
2024-05-09T06:13:47.498Z,1.80
2024-05-09T06:18:59.517Z,2.88
2024-05-09T06:24:09.050Z,1.98
2024-05-09T06:29:17.825Z,2.20
2024-05-09T06:34:30.163Z,3.78
2024-05-09T06:39:38.988Z,2.10
2024-05-09T06:44:47.679Z,4.25
2024-05-09T06:49:59.042Z,2.00
2024-05-09T06:55:08.442Z,2.38
2024-05-09T07:05:42.103Z,1.50
2024-05-09T07:10:51.260Z,1.45
2024-05-09T07:16:01.962Z,1.33
2024-05-09T07:21:13.744Z,1.63
2024-05-09T07:26:22.776Z,1.85
2024-05-09T07:31:31.812Z,1.13
2024-05-09T07:41:51.344Z,1.40
2024-05-09T07:53:29.918Z,1.00
2024-05-09T07:57:44.922Z,1.20
2024-05-09T08:02:53.778Z,1.40
2024-05-09T08:08:05.353Z,1.00
2024-05-09T08:13:14.066Z,1.27
2024-05-09T08:18:23.328Z,1.48
2024-05-09T08:23:36.673Z,1.40
2024-05-09T08:28:45.442Z,1.65
2024-05-09T08:33:55.626Z,1.65
2024-05-09T08:39:08.256Z,1.17
2024-05-09T08:44:17.683Z,1.38
2024-05-09T08:49:27.971Z,1.33
2024-05-09T08:54:39.902Z,1.23
2024-05-09T08:59:52.941Z,1.20
2024-05-09T09:05:11.237Z,1.40
2024-05-09T09:10:29.934Z,1.50
2024-05-09T09:15:51.418Z,1.23
2024-05-09T09:26:11.441Z,1.53
2024-05-09T09:31:23.078Z,1.63
2024-05-09T09:36:34.382Z,1.35
2024-05-09T09:41:49.166Z,1.05
2024-05-09T09:47:02.971Z,1.45
2024-05-09T09:52:12.314Z,2.53
2024-05-09T09:57:24.874Z,1.10
2024-05-09T10:02:33.931Z,1.27
2024-05-09T10:07:46.807Z,1.35
2024-05-09T10:13:07.049Z,1.20
2024-05-09T10:18:16.642Z,1.20
2024-05-09T10:23:30.557Z,1.10
2024-05-09T10:28:47.865Z,1.40
2024-05-09T10:33:58.331Z,1.30
2024-05-09T10:39:07.658Z,1.10
2024-05-09T10:44:20.506Z,1.10
2024-05-09T10:49:29.227Z,1.27
2024-05-09T10:54:40.849Z,1.10
2024-05-09T10:59:54.457Z,1.27
2024-05-09T11:05:03.245Z,0.93
2024-05-09T11:10:14.837Z,0.75
2024-05-09T11:15:29.677Z,1.55
2024-05-09T11:20:42.236Z,1.30
2024-05-09T11:25:53.904Z,0.90
2024-05-09T11:31:14.329Z,1.13
2024-05-09T11:36:23.542Z,0.77
2024-05-09T11:41:33.902Z,1.00
2024-05-09T11:46:47.124Z,0.98
2024-05-09T11:51:56.007Z,1.00
2024-05-09T12:02:15.824Z,1.48
2024-05-09T12:07:25.686Z,0.90
2024-05-09T12:12:37.115Z,0.80
2024-05-09T12:17:50.957Z,0.80
2024-05-09T12:22:59.780Z,0.90
2024-05-09T12:28:09.692Z,0.77
2024-05-09T12:33:22.168Z,0.90
2024-05-09T12:38:31.133Z,0.93
2024-05-09T12:48:51.452Z,1.10
2024-05-09T12:54:00.186Z,0.93
2024-05-09T12:59:09.246Z,0.82
2024-05-09T13:04:20.825Z,0.65
2024-05-09T13:09:30.034Z,1.25
2024-05-09T13:19:50.070Z,0.98
2024-05-09T13:24:58.957Z,1.48
2024-05-09T13:35:29.930Z,0.70
2024-05-09T13:40:39.070Z,0.68
2024-05-09T13:45:48.168Z,0.70
2024-05-09T13:50:59.986Z,0.63
2024-05-09T13:56:09.555Z,0.88
2024-05-09T14:01:18.609Z,0.55
2024-05-09T14:06:30.587Z,0.80
2024-05-09T14:11:39.735Z,0.60
2024-05-09T14:16:48.756Z,0.70
2024-05-09T14:22:00.617Z,0.90
2024-05-09T14:27:09.912Z,0.70
2024-05-09T14:32:19.883Z,0.90
2024-05-09T14:37:34.769Z,0.80
2024-05-09T14:42:44.787Z,0.70
2024-05-09T14:47:54.108Z,0.70
2024-05-09T14:53:06.775Z,0.85
2024-05-09T14:58:16.645Z,1.17
2024-05-09T15:03:25.619Z,0.73
2024-05-09T15:08:40.231Z,1.00
2024-05-09T15:13:49.030Z,0.70
2024-05-09T15:24:10.404Z,0.60
2024-05-09T15:29:19.379Z,0.80
2024-05-09T15:39:39.400Z,0.60
2024-05-09T15:44:53.135Z,0.80
2024-05-09T15:50:02.247Z,0.60
2024-05-09T15:55:14.757Z,0.60
2024-05-09T16:00:36.549Z,0.80
2024-05-09T16:05:49.277Z,0.73
2024-05-09T16:11:01.085Z,0.60
2024-05-09T16:16:10.970Z,0.68
2024-05-09T16:21:20.078Z,0.63
2024-05-09T16:31:39.812Z,0.63
2024-05-09T16:41:59.746Z,0.40
2024-05-09T16:47:10.213Z,0.68
2024-05-09T16:52:19.829Z,0.63
2024-05-09T16:57:31.403Z,0.60
2024-05-09T17:02:41.258Z,0.70
2024-05-09T17:07:50.374Z,0.52
2024-05-09T17:13:02.202Z,0.68
2024-05-09T17:18:11.822Z,1.00
2024-05-09T17:23:20.902Z,0.50
2024-05-09T17:28:32.510Z,0.73
2024-05-09T17:33:43.253Z,0.70
2024-05-09T17:38:52.495Z,0.98
2024-05-09T17:44:04.134Z,0.75
2024-05-09T17:49:13.008Z,0.93
2024-05-09T17:54:21.765Z,1.08
2024-05-09T17:59:33.428Z,1.05
2024-05-09T18:04:42.379Z,1.33
2024-05-09T18:09:51.653Z,2.10
2024-05-09T18:15:03.656Z,1.48
2024-05-09T18:20:23.531Z,1.10
2024-05-09T18:25:37.980Z,1.85
2024-05-09T18:30:50.220Z,1.40
2024-05-09T18:35:59.988Z,1.20
2024-05-09T18:41:09.815Z,1.40
2024-05-09T18:46:23.120Z,1.20
2024-05-09T18:51:33.187Z,1.65
2024-05-09T18:56:43.645Z,1.90
2024-05-09T19:01:59.610Z,1.63
2024-05-09T19:07:09.979Z,3.17
2024-05-09T19:12:20.951Z,4.00
2024-05-09T19:17:34.254Z,3.00
2024-05-09T19:22:44.583Z,2.50
2024-05-09T19:28:00.260Z,3.60
2024-05-09T19:33:15.400Z,2.80
2024-05-09T19:38:26.540Z,3.22
2024-05-09T19:43:37.730Z,3.40
2024-05-09T19:48:52.613Z,3.80
2024-05-09T19:54:02.767Z,3.70
2024-05-09T19:59:12.286Z,4.55
2024-05-09T20:04:24.557Z,4.57
2024-05-09T20:09:35.257Z,3.97
2024-05-09T20:14:45.778Z,7.43
2024-05-09T20:19:59.720Z,4.93
2024-05-09T20:25:12.246Z,3.67
2024-05-09T20:30:30.515Z,4.32
2024-05-09T20:35:48.442Z,4.57
2024-05-09T20:40:59.905Z,4.70
2024-05-09T20:46:10.762Z,4.03
2024-05-09T20:51:23.084Z,4.05
2024-05-09T20:56:32.216Z,5.78
2024-05-09T21:01:43.206Z,5.82
2024-05-09T21:06:56.440Z,5.53
2024-05-09T21:12:05.623Z,6.25
2024-05-09T21:17:14.714Z,7.60
2024-05-09T21:27:35.194Z,7.18
2024-05-09T21:37:55.274Z,5.73
2024-05-09T21:43:04.498Z,5.45
2024-05-09T21:48:16.789Z,4.00
2024-05-09T21:53:28.543Z,4.80
2024-05-09T21:58:37.576Z,4.18
2024-05-09T22:03:46.955Z,4.38
2024-05-09T22:08:58.888Z,2.80
2024-05-09T22:14:07.975Z,2.75
2024-05-09T22:19:16.748Z,2.95
2024-05-09T22:24:28.461Z,2.90
2024-05-09T22:29:37.247Z,2.63
2024-05-09T22:34:46.148Z,3.30
2024-05-09T22:45:06.163Z,3.03
2024-05-09T22:50:18.678Z,2.45
2024-05-09T22:55:37.386Z,2.97
2024-05-09T23:00:46.191Z,2.28
2024-05-09T23:05:55.146Z,2.72
2024-05-09T23:16:15.656Z,2.88
2024-05-09T23:21:24.447Z,3.17
2024-05-09T23:26:36.011Z,2.47
2024-05-09T23:31:45.055Z,2.35
2024-05-09T23:36:53.618Z,2.45
2024-05-09T23:42:05.233Z,3.20
2024-05-09T23:47:14.025Z,3.05
2024-05-09T23:52:22.886Z,3.65
2024-05-09T23:57:34.666Z,2.90
